Time;durP1;ratioP1;P1;durP2;ratioP2;P2;SDS_P1;SDS_P2;PMS_P1;PMS_P2;Temp;Humidity;BMP_temperature;BMP_pressure;BME280_temperature;BME280_humidity;BME280_pressure;Samples;Min_cycle;Max_cycle;Signal;HPM_P1;HPM_P2
2023/08/11 00:01:12;;;;;;;2.65;1.90;;;;;;;16.39;85.84;94998.09;5092822;28;20228;-74
2023/08/11 00:03:43;;;;;;;2.17;1.48;;;;;;;16.39;85.84;94992.63;5078475;28;20202;-75
2023/08/11 00:06:10;;;;;;;2.10;1.48;;;;;;;16.33;86.11;94997.56;5082238;28;20204;-75
2023/08/11 00:08:38;;;;;;;4.82;1.45;;;;;;;16.22;85.95;95002.00;5072790;28;20307;-74
2023/08/11 00:11:06;;;;;;;4.13;1.50;;;;;;;16.20;85.96;94996.88;5072119;28;20227;-75
2023/08/11 00:13:33;;;;;;;1.70;1.50;;;;;;;16.14;86.44;94986.56;5083528;28;20198;-76
2023/08/11 00:16:01;;;;;;;1.92;1.42;;;;;;;16.06;86.27;94991.06;5088143;28;20226;-75
2023/08/11 00:18:28;;;;;;;1.63;1.30;;;;;;;16.07;85.90;94987.19;5104453;28;20220;-76
2023/08/11 00:20:57;;;;;;;6.80;1.70;;;;;;;15.97;89.43;94988.53;5086868;28;20267;-79
2023/08/11 00:23:24;;;;;;;2.83;1.63;;;;;;;15.70;89.91;94986.66;5107336;28;20202;-79
2023/08/11 00:25:51;;;;;;;3.33;1.70;;;;;;;15.69;89.83;94984.28;5106943;28;20925;-79
2023/08/11 00:28:18;;;;;;;1.67;1.30;;;;;;;15.63;89.55;94995.44;5096940;28;20226;-79
2023/08/11 00:30:45;;;;;;;1.65;1.15;;;;;;;15.58;89.40;94981.28;5090322;28;20229;-79
2023/08/11 00:33:11;;;;;;;2.25;1.40;;;;;;;15.60;88.45;94990.69;5109244;28;20209;-80
2023/08/11 00:35:38;;;;;;;1.45;1.30;;;;;;;15.61;88.09;94986.81;5092602;28;20284;-74
2023/08/11 00:38:06;;;;;;;4.82;1.20;;;;;;;15.64;88.18;94991.56;5089400;28;20206;-74
2023/08/11 00:40:33;;;;;;;1.63;1.27;;;;;;;15.57;88.55;94991.41;5092671;28;20216;-74
2023/08/11 00:43:00;;;;;;;1.10;1.00;;;;;;;15.62;88.29;94993.84;5099551;28;20577;-74
2023/08/11 00:45:27;;;;;;;3.33;1.38;;;;;;;15.57;88.77;95002.31;5093673;28;20218;-75
2023/08/11 00:47:54;;;;;;;1.73;1.27;;;;;;;15.52;89.28;94994.34;5080155;28;20567;-74
2023/08/11 00:50:21;;;;;;;1.90;1.40;;;;;;;15.45;90.38;94999.59;5106889;28;20229;-74
2023/08/11 00:52:49;;;;;;;2.47;1.30;;;;;;;15.49;90.12;95000.50;5100698;28;20210;-74
2023/08/11 00:55:18;;;;;;;1.80;1.42;;;;;;;15.55;89.67;95001.09;5088668;28;20214;-75
2023/08/11 00:57:46;;;;;;;2.70;1.55;;;;;;;15.51;89.97;94994.69;5103614;28;20320;-75
2023/08/11 01:00:16;;;;;;;1.85;1.50;;;;;;;15.56;91.36;94995.28;5078354;28;20202;-75
2023/08/11 01:02:44;;;;;;;2.95;1.50;;;;;;;15.58;90.90;94995.69;5092205;28;20194;-75
2023/08/11 01:05:14;;;;;;;3.92;1.63;;;;;;;15.61;91.52;94991.47;5104057;28;20216;-79
2023/08/11 01:07:48;;;;;;;1.70;1.40;;;;;;;15.52;91.02;94994.34;5093100;28;20206;-79
2023/08/11 01:10:28;;;;;;;4.13;1.67;;;;;;;15.53;90.63;94995.16;5093959;28;20646;-79
2023/08/11 01:13:06;;;;;;;3.50;1.63;;;;;;;15.50;89.99;94990.38;5100880;28;20206;-79
2023/08/11 01:15:38;;;;;;;3.10;1.88;;;;;;;15.48;90.23;94993.44;5093130;28;20202;-79
2023/08/11 01:18:07;;;;;;;4.18;2.10;;;;;;;15.47;90.04;94994.59;5105867;28;20280;-79
2023/08/11 01:20:36;;;;;;;2.72;1.85;;;;;;;15.35;90.23;94994.66;5095746;28;20202;-78
2023/08/11 01:23:04;;;;;;;3.47;2.10;;;;;;;15.29;90.64;95001.53;5085903;28;20257;-80
2023/08/11 01:25:33;;;;;;;2.70;1.92;;;;;;;15.19;90.85;94996.53;5102968;28;20244;-79
2023/08/11 01:28:02;;;;;;;1.95;1.55;;;;;;;15.15;91.33;94996.47;5095634;28;20644;-79
2023/08/11 01:30:31;;;;;;;4.05;1.90;;;;;;;15.09;91.76;95002.50;5086943;28;20226;-79
2023/08/11 01:32:58;;;;;;;2.85;1.60;;;;;;;15.10;91.50;95004.09;5099077;28;20651;-79
2023/08/11 01:35:25;;;;;;;2.08;1.70;;;;;;;15.13;91.44;95008.88;5107523;28;20213;-79
2023/08/11 01:37:52;;;;;;;2.38;1.73;;;;;;;15.06;91.92;95003.19;5088072;28;20272;-79
2023/08/11 01:40:19;;;;;;;2.15;1.42;;;;;;;15.06;91.23;94997.72;5099037;28;20578;-80
2023/08/11 01:42:47;;;;;;;2.65;1.70;;;;;;;15.11;91.19;94995.56;5100709;28;20209;-79
2023/08/11 01:45:15;;;;;;;3.28;1.60;;;;;;;15.06;91.52;94997.72;5081729;28;20210;-80
2023/08/11 01:47:45;;;;;;;3.00;2.00;;;;;;;15.13;91.83;94995.22;5098338;28;20680;-80
2023/08/11 01:50:14;;;;;;;10.52;2.00;;;;;;;15.18;91.87;94995.75;5090825;28;20213;-80
2023/08/11 01:52:46;;;;;;;3.42;1.65;;;;;;;15.08;92.15;94990.78;5098071;28;20226;-79
2023/08/11 01:55:14;;;;;;;3.63;1.90;;;;;;;14.99;92.80;94998.34;5104428;28;20553;-80
2023/08/11 01:57:42;;;;;;;2.30;1.77;;;;;;;14.86;92.68;94994.06;5103839;28;20696;-79
2023/08/11 02:00:13;;;;;;;2.25;1.85;;;;;;;14.76;92.73;94995.31;5096938;28;20256;-79
2023/08/11 02:02:40;;;;;;;3.55;2.10;;;;;;;14.65;92.96;94994.22;5074565;28;20198;-79
2023/08/11 02:05:09;;;;;;;2.40;1.95;;;;;;;14.68;93.31;94998.19;5097285;28;20278;-78
2023/08/11 02:07:36;;;;;;;3.33;2.30;;;;;;;14.72;93.63;95002.63;5077688;28;20197;-79
2023/08/11 02:10:02;;;;;;;3.25;2.10;;;;;;;14.71;94.06;95003.75;5095001;28;20213;-79
2023/08/11 02:12:29;;;;;;;2.78;1.88;;;;;;;14.63;94.04;94999.22;5090113;28;20226;-80
2023/08/11 02:14:56;;;;;;;3.10;2.20;;;;;;;14.65;94.46;94987.97;5106848;28;20194;-79
2023/08/11 02:17:25;;;;;;;6.20;2.15;;;;;;;14.62;94.47;94994.13;5104255;28;20241;-79
2023/08/11 02:19:53;;;;;;;3.67;2.15;;;;;;;14.57;94.66;94997.88;5106656;28;20214;-79
2023/08/11 02:25:01;;;;;;;2.35;1.90;;;;;;;14.52;94.42;94998.09;5095453;28;20304;-79
2023/08/11 02:27:28;;;;;;;3.38;2.17;;;;;;;14.36;95.30;95003.41;5108470;28;20680;-79
2023/08/11 02:29:55;;;;;;;3.50;2.15;;;;;;;14.34;95.21;95007.66;5104166;28;20527;-79
2023/08/11 02:32:24;;;;;;;2.60;1.98;;;;;;;14.29;95.53;95005.13;5101756;28;20237;-78
2023/08/11 02:34:51;;;;;;;3.03;1.88;;;;;;;14.20;95.92;95002.53;5107528;28;20201;-78
2023/08/11 02:37:17;;;;;;;2.50;1.88;;;;;;;14.31;96.15;95011.03;5109139;28;20649;-78
2023/08/11 02:39:44;;;;;;;1.73;1.48;;;;;;;14.48;95.87;95010.84;5090983;28;20217;-81
2023/08/11 02:42:12;;;;;;;2.88;1.77;;;;;;;14.57;95.45;95006.06;5104736;28;20566;-79
2023/08/11 02:44:41;;;;;;;3.42;1.95;;;;;;;14.68;95.12;95001.72;5102876;28;20213;-79
2023/08/11 02:47:09;;;;;;;3.08;1.63;;;;;;;14.72;95.26;95015.47;5085824;28;20205;-79
2023/08/11 02:49:38;;;;;;;3.38;1.98;;;;;;;14.70;95.29;95009.56;5111710;28;20209;-81
2023/08/11 02:52:05;;;;;;;2.35;1.77;;;;;;;14.66;95.49;95012.16;5104943;28;20226;-79
2023/08/11 02:54:32;;;;;;;2.30;1.50;;;;;;;14.70;95.85;95013.06;5091477;28;20209;-81
2023/08/11 02:56:59;;;;;;;2.63;1.85;;;;;;;14.76;96.05;95017.13;5099515;28;20210;-79
2023/08/11 02:59:29;;;;;;;2.28;1.58;;;;;;;14.83;95.77;95006.44;5100988;28;20202;-80
2023/08/11 03:01:56;;;;;;;1.95;1.52;;;;;;;14.78;95.71;95003.94;5096846;28;20270;-75
2023/08/11 03:04:25;;;;;;;2.03;1.38;;;;;;;14.90;95.66;95012.09;5090248;28;20213;-74
2023/08/11 03:06:53;;;;;;;2.17;1.67;;;;;;;14.91;95.31;95013.69;5091090;28;20198;-76
2023/08/11 03:09:23;;;;;;;2.47;1.48;;;;;;;14.92;95.39;95015.28;5092359;28;20210;-75
2023/08/11 03:11:50;;;;;;;2.22;1.77;;;;;;;15.02;95.07;95013.22;5109522;28;20230;-77
2023/08/11 03:14:17;;;;;;;4.30;1.60;;;;;;;15.03;95.08;95014.81;5099787;28;20220;-75
2023/08/11 03:16:44;;;;;;;5.53;1.75;;;;;;;15.07;94.73;95023.88;5097972;28;20251;-75
2023/08/11 03:19:11;;;;;;;3.63;1.60;;;;;;;15.13;94.17;95025.25;5091432;28;20237;-76
2023/08/11 03:21:38;;;;;;;2.05;1.42;;;;;;;15.12;94.58;95024.44;5082608;28;20199;-75
2023/08/11 03:24:07;;;;;;;2.33;1.55;;;;;;;15.16;94.21;95021.81;5096590;28;20251;-75
2023/08/11 03:26:34;;;;;;;2.90;1.70;;;;;;;15.17;94.28;95026.13;5096254;28;20231;-75
2023/08/11 03:29:01;;;;;;;2.22;1.63;;;;;;;15.10;94.74;95017.72;5097290;28;20289;-75
2023/08/11 03:31:27;;;;;;;1.90;1.55;;;;;;;15.12;94.82;95029.09;5090594;28;20260;-75
2023/08/11 03:33:57;;;;;;;1.73;1.33;;;;;;;15.14;95.16;95024.09;5098927;28;20209;-75
2023/08/11 03:36:24;;;;;;;2.28;2.00;;;;;;;15.14;95.05;95026.81;5102533;28;20255;-75
2023/08/11 03:38:51;;;;;;;2.55;1.75;;;;;;;15.16;94.91;95019.88;5098919;28;20791;-75
2023/08/11 03:41:19;;;;;;;2.58;1.70;;;;;;;15.38;93.68;95032.19;5093748;28;20236;-74
2023/08/11 03:43:47;;;;;;;1.58;1.27;;;;;;;15.76;92.34;95025.41;5105657;28;20203;-75
2023/08/11 03:46:14;;;;;;;4.32;1.70;;;;;;;16.15;89.79;95021.75;5094981;28;20202;-74
2023/08/11 03:48:42;;;;;;;1.75;1.40;;;;;;;16.51;87.94;95022.59;5093446;28;20210;-74
2023/08/11 03:51:09;;;;;;;1.55;1.45;;;;;;;16.77;86.13;95025.59;5093199;28;20302;-75
2023/08/11 03:53:37;;;;;;;2.13;1.52;;;;;;;17.03;84.82;95017.56;5097638;28;20209;-74
2023/08/11 03:56:07;;;;;;;2.28;1.67;;;;;;;17.62;82.58;95021.88;5113558;28;20237;-75
2023/08/11 03:58:36;;;;;;;3.00;1.38;;;;;;;17.93;80.34;95020.09;5107099;28;20263;-75
2023/08/11 04:01:04;;;;;;;2.50;1.15;;;;;;;18.36;78.24;95005.97;5096904;28;20202;-74
2023/08/11 04:03:31;;;;;;;1.95;1.60;;;;;;;19.50;75.20;95005.63;5099032;28;20236;-76
2023/08/11 04:05:58;;;;;;;4.43;1.50;;;;;;;19.90;71.87;95000.56;5113995;28;20205;-75
2023/08/11 04:08:26;;;;;;;1.60;1.50;;;;;;;20.17;70.65;95002.00;5104153;28;20642;-76
2023/08/11 04:10:52;;;;;;;2.13;1.38;;;;;;;20.71;68.50;94997.72;5107208;28;20235;-77
2023/08/11 04:13:19;;;;;;;2.42;1.42;;;;;;;21.30;66.41;95001.25;5113422;28;20278;-76
2023/08/11 04:15:49;;;;;;;3.78;1.77;;;;;;;20.98;66.68;95001.03;5113376;28;20259;-78
2023/08/11 04:18:16;;;;;;;3.03;1.70;;;;;;;21.36;65.90;94999.69;5102098;28;20209;-82
2023/08/11 04:20:43;;;;;;;1.92;1.50;;;;;;;21.72;65.32;95004.16;5087586;28;20218;-81
2023/08/11 04:23:09;;;;;;;1.67;1.45;;;;;;;21.19;66.01;95013.00;5114647;28;20791;-78
2023/08/11 04:25:36;;;;;;;2.67;1.33;;;;;;;21.24;66.29;95004.38;5114876;28;20606;-78
2023/08/11 04:28:04;;;;;;;3.78;1.90;;;;;;;21.04;66.77;95010.53;5114608;28;20224;-80
2023/08/11 04:30:32;;;;;;;2.88;1.65;;;;;;;21.73;64.59;95011.22;5114004;28;20544;-81
2023/08/11 04:33:01;;;;;;;1.63;1.30;;;;;;;21.24;65.85;95009.88;5115345;28;20687;-79
2023/08/11 04:35:28;;;;;;;3.72;1.30;;;;;;;23.03;60.97;95012.56;5112844;28;20206;-80
2023/08/11 04:37:55;;;;;;;1.70;1.40;;;;;;;23.20;59.95;95013.72;5112837;28;20213;-79
2023/08/11 04:40:22;;;;;;;1.58;1.30;;;;;;;22.84;60.28;95012.97;5112997;28;20637;-79
2023/08/11 04:42:49;;;;;;;5.32;1.60;;;;;;;22.66;60.45;95014.97;5114632;28;20342;-78
2023/08/11 04:45:16;;;;;;;4.43;1.50;;;;;;;23.79;58.01;95011.13;5113463;28;20286;-80
2023/08/11 04:47:43;;;;;;;3.28;1.98;;;;;;;24.48;55.78;95010.31;5113775;28;20217;-79
2023/08/11 04:50:12;;;;;;;1.90;1.70;;;;;;;23.90;57.07;95014.66;5110507;28;20634;-79
2023/08/11 04:52:39;;;;;;;3.15;1.50;;;;;;;23.62;57.69;95023.09;5093390;28;20715;-79
2023/08/11 04:55:07;;;;;;;2.22;1.70;;;;;;;24.05;57.02;95018.88;5093588;28;20282;-80
2023/08/11 04:57:34;;;;;;;1.98;1.67;;;;;;;23.08;59.29;95025.19;5104958;28;20369;-79
2023/08/11 05:00:01;;;;;;;2.45;1.70;;;;;;;24.92;54.65;95017.09;5112101;28;20267;-80
2023/08/11 05:02:28;;;;;;;2.78;1.90;;;;;;;23.44;57.80;95019.56;5115213;28;20575;-79
2023/08/11 05:04:55;;;;;;;2.50;1.70;;;;;;;23.81;57.20;95022.59;5114155;28;20224;-82
2023/08/11 05:07:23;;;;;;;1.70;1.60;;;;;;;24.19;56.31;95022.78;5113481;28;20735;-80
2023/08/11 05:09:50;;;;;;;3.58;2.10;;;;;;;25.06;53.89;95022.53;5097307;28;20201;-80
2023/08/11 05:12:17;;;;;;;3.15;1.77;;;;;;;23.25;58.46;95035.41;5115586;28;20233;-80
2023/08/11 05:14:44;;;;;;;3.97;1.88;;;;;;;23.13;58.98;95033.06;5115173;28;20210;-80
2023/08/11 05:17:10;;;;;;;2.92;1.85;;;;;;;23.83;57.38;95036.03;5114546;28;20245;-80
2023/08/11 05:19:37;;;;;;;2.42;1.70;;;;;;;24.67;54.36;95034.72;5107432;28;20209;-81
2023/08/11 05:22:04;;;;;;;3.95;1.95;;;;;;;23.78;56.43;95040.00;5093637;28;20653;-81
2023/08/11 05:24:32;;;;;;;4.82;1.83;;;;;;;23.45;57.12;95040.50;5112885;28;20217;-78
2023/08/11 05:26:59;;;;;;;2.00;1.73;;;;;;;23.57;57.86;95042.84;5114763;28;20205;-80
2023/08/11 05:29:29;;;;;;;3.05;1.95;;;;;;;25.42;53.22;95040.38;5112267;28;20291;-81
2023/08/11 05:31:56;;;;;;;2.95;1.83;;;;;;;25.61;51.69;95046.50;5113020;28;20239;-83
2023/08/11 05:34:23;;;;;;;3.22;1.75;;;;;;;25.04;52.65;95041.56;5109549;28;20268;-79
2023/08/11 05:36:50;;;;;;;2.00;1.70;;;;;;;24.40;54.53;95044.81;5093744;28;20309;-82
2023/08/11 05:39:17;;;;;;;4.15;2.13;;;;;;;24.94;54.13;95042.44;5103492;28;20212;-81
2023/08/11 05:41:45;;;;;;;7.82;2.08;;;;;;;26.92;49.21;95043.94;5112354;28;20546;-80
2023/08/11 05:44:12;;;;;;;2.92;2.03;;;;;;;27.86;46.92;95042.66;5111915;28;20212;-81
2023/08/11 05:46:39;;;;;;;5.35;1.90;;;;;;;27.86;46.27;95045.44;5112518;28;20216;-77
2023/08/11 05:49:06;;;;;;;3.88;2.05;;;;;;;25.73;50.15;95060.66;5112861;28;20561;-76
2023/08/11 05:51:33;;;;;;;4.47;1.98;;;;;;;27.07;48.06;95039.72;5096976;28;20210;-77
2023/08/11 05:54:02;;;;;;;2.63;1.75;;;;;;;27.00;48.53;95056.53;5100422;28;20210;-76
2023/08/11 05:56:29;;;;;;;4.82;2.17;;;;;;;27.20;47.34;95055.38;5111988;28;20535;-76
2023/08/11 05:58:57;;;;;;;3.35;1.88;;;;;;;27.00;47.28;95056.53;5103545;28;20211;-75
2023/08/11 06:01:24;;;;;;;2.50;1.95;;;;;;;25.56;50.64;95069.19;5096178;28;20651;-76
2023/08/11 06:03:51;;;;;;;3.65;1.80;;;;;;;26.50;48.47;95057.31;5090141;28;20207;-76
2023/08/11 06:06:18;;;;;;;2.53;2.03;;;;;;;24.77;53.26;95060.75;5092339;28;20592;-75
2023/08/11 06:08:45;;;;;;;2.58;1.83;;;;;;;25.69;51.22;95064.72;5097946;28;20205;-76
2023/08/11 06:11:12;;;;;;;4.57;2.10;;;;;;;27.55;47.28;95058.72;5100388;28;20213;-77
2023/08/11 06:13:39;;;;;;;4.55;2.13;;;;;;;27.14;46.36;95056.31;5094030;28;20264;-75
2023/08/11 06:16:08;;;;;;;2.35;1.88;;;;;;;26.97;47.63;95060.94;5111041;28;20294;-76
2023/08/11 06:18:35;;;;;;;4.13;1.83;;;;;;;26.87;47.67;95064.66;5106037;28;20581;-76
2023/08/11 06:21:04;;;;;;;2.72;2.05;;;;;;;27.14;47.72;95059.09;5106967;28;20217;-75
2023/08/11 06:23:31;;;;;;;3.97;2.05;;;;;;;26.09;50.14;95071.34;5111573;28;20649;-75
2023/08/11 06:25:58;;;;;;;2.30;1.95;;;;;;;27.76;45.97;95058.34;5074606;28;20758;-76
2023/08/11 06:28:25;;;;;;;2.95;2.15;;;;;;;27.83;45.39;95057.41;5102755;28;20220;-76
2023/08/11 06:30:52;;;;;;;2.58;2.20;;;;;;;26.15;49.20;95081.56;5110945;28;20213;-77
2023/08/11 06:33:20;;;;;;;3.45;2.30;;;;;;;26.86;47.35;95069.44;5110839;28;20711;-76
2023/08/11 06:35:47;;;;;;;3.85;2.38;;;;;;;27.47;45.76;95074.00;5106262;28;20206;-77
2023/08/11 06:38:14;;;;;;;3.17;2.28;;;;;;;28.62;43.47;95060.09;5102228;28;20217;-75
2023/08/11 06:40:41;;;;;;;2.45;2.25;;;;;;;28.19;44.43;95069.41;5111198;28;20640;-76
2023/08/11 06:43:08;;;;;;;3.55;2.13;;;;;;;27.49;46.34;95072.34;5110865;28;20649;-76
2023/08/11 06:45:35;;;;;;;3.28;2.10;;;;;;;27.69;45.46;95068.84;5110679;28;20217;-75
2023/08/11 06:48:02;;;;;;;3.95;2.55;;;;;;;27.55;45.65;95073.44;5110645;28;20218;-79
2023/08/11 06:50:30;;;;;;;5.18;2.20;;;;;;;28.86;43.46;95072.72;5110477;28;20210;-75
2023/08/11 06:52:57;;;;;;;4.85;2.42;;;;;;;27.30;45.96;95075.09;5110378;28;20643;-76
2023/08/11 06:55:23;;;;;;;2.47;2.28;;;;;;;28.40;44.48;95076.53;5110425;28;20220;-75
2023/08/11 06:57:50;;;;;;;4.88;2.20;;;;;;;29.30;43.14;95067.63;5107494;28;20213;-76
2023/08/11 07:00:17;;;;;;;4.30;2.35;;;;;;;29.42;42.09;95075.31;5092486;28;20204;-75
2023/08/11 07:02:44;;;;;;;4.57;2.55;;;;;;;26.42;46.94;95091.94;5098106;28;20195;-75
2023/08/11 07:05:11;;;;;;;4.57;2.42;;;;;;;27.02;46.08;95081.94;5109736;28;20217;-75
2023/08/11 07:07:40;;;;;;;2.97;2.53;;;;;;;27.31;45.60;95083.03;5095425;28;20198;-75
2023/08/11 07:10:07;;;;;;;4.78;2.42;;;;;;;28.27;43.48;95092.34;5103467;28;20572;-75
2023/08/11 07:12:34;;;;;;;3.08;2.67;;;;;;;28.72;41.73;95084.16;5117546;28;20290;-75
2023/08/11 07:15:01;;;;;;;3.50;2.22;;;;;;;29.36;40.25;95093.81;5117448;28;20224;-76
2023/08/11 07:17:28;;;;;;;3.20;2.22;;;;;;;29.27;40.92;95085.25;5090210;28;20239;-75
2023/08/11 07:19:55;;;;;;;4.25;2.40;;;;;;;29.86;40.22;95082.13;5117350;28;20266;-77
2023/08/11 07:22:22;;;;;;;5.43;2.55;;;;;;;29.66;40.76;95073.88;5117487;28;20216;-77
2023/08/11 07:24:50;;;;;;;2.97;2.47;;;;;;;29.95;40.15;95087.06;5109109;28;20214;-75
2023/08/11 07:27:17;;;;;;;4.38;3.00;;;;;;;27.42;43.72;95089.19;5097063;28;20210;-75
2023/08/11 07:29:44;;;;;;;3.88;2.70;;;;;;;26.51;46.42;95095.00;5112730;28;20237;-75
2023/08/11 07:32:14;;;;;;;3.42;2.58;;;;;;;26.43;46.10;95101.84;5116752;28;20221;-76
2023/08/11 07:34:41;;;;;;;2.70;2.50;;;;;;;26.44;45.21;95104.22;5089450;28;20511;-76
2023/08/11 07:37:08;;;;;;;4.70;2.70;;;;;;;27.39;44.08;95087.25;5096937;28;20602;-75
2023/08/11 07:39:35;;;;;;;4.25;2.70;;;;;;;27.83;43.89;95080.47;5106834;28;20213;-75
2023/08/11 07:42:04;;;;;;;3.20;2.40;;;;;;;27.82;43.33;95089.25;5114229;28;20965;-75
2023/08/11 07:44:31;;;;;;;5.40;2.78;;;;;;;27.13;45.29;95088.88;5116891;28;20202;-76
2023/08/11 07:46:58;;;;;;;2.90;2.40;;;;;;;26.54;46.18;95097.72;5104353;28;20197;-75
2023/08/11 07:49:25;;;;;;;3.38;2.90;;;;;;;27.77;43.09;95098.88;5099563;28;20562;-76
2023/08/11 07:51:53;;;;;;;3.38;2.38;;;;;;;28.58;41.23;95101.22;5101715;28;20988;-76
2023/08/11 07:54:20;;;;;;;4.82;2.20;;;;;;;29.37;39.67;95097.38;5097972;28;20328;-77
2023/08/11 07:56:47;;;;;;;2.78;2.22;;;;;;;29.15;38.76;95094.34;5108777;28;20948;-76
2023/08/11 07:59:15;;;;;;;4.10;2.28;;;;;;;28.70;39.56;95092.19;5096746;28;20588;-77
2023/08/11 08:01:42;;;;;;;3.53;2.38;;;;;;;29.22;38.97;95099.75;5077447;28;20206;-77
2023/08/11 08:04:10;;;;;;;4.57;2.47;;;;;;;29.23;38.61;95090.16;5096030;28;20202;-76
2023/08/11 08:06:45;;;;;;;3.40;2.35;;;;;;;28.92;37.71;95093.28;5114441;28;20209;-76
2023/08/11 08:09:13;;;;;;;2.13;1.92;;;;;;;29.60;37.29;95088.81;5101239;28;20201;-75
2023/08/11 08:11:42;;;;;;;3.38;1.90;;;;;;;28.57;37.17;95094.84;5104083;28;20216;-76
2023/08/11 08:14:10;;;;;;;2.88;2.00;;;;;;;26.90;40.22;95103.56;5090395;28;20589;-76
2023/08/11 08:16:41;;;;;;;3.35;2.15;;;;;;;27.36;41.06;95090.09;5113359;28;20329;-76
2023/08/11 08:19:10;;;;;;;2.95;2.25;;;;;;;26.92;42.16;95087.19;5113462;28;20296;-76
2023/08/11 08:21:37;;;;;;;4.40;2.42;;;;;;;27.70;41.14;95087.13;5113602;28;20209;-77
2023/08/11 08:24:04;;;;;;;4.43;2.28;;;;;;;27.52;41.58;95093.75;5097467;28;20209;-75
2023/08/11 08:26:32;;;;;;;2.38;2.17;;;;;;;26.47;41.22;95092.28;5088554;28;20210;-75
2023/08/11 08:28:59;;;;;;;2.95;1.90;;;;;;;25.98;45.00;95099.22;5108575;28;20214;-74
2023/08/11 08:31:26;;;;;;;3.83;2.50;;;;;;;25.06;45.25;95094.63;5113053;28;20286;-75
2023/08/11 08:33:55;;;;;;;2.55;2.35;;;;;;;24.53;46.73;95095.78;5113220;28;20229;-76
2023/08/11 08:36:21;;;;;;;2.33;2.08;;;;;;;25.12;45.64;95098.53;5113155;28;20209;-75
2023/08/11 08:38:50;;;;;;;2.45;2.10;;;;;;;25.39;45.83;95104.22;5113132;28;20209;-74
2023/08/11 08:41:23;;;;;;;2.70;2.40;;;;;;;25.59;44.81;95094.09;5112921;28;20205;-74
2023/08/11 08:43:51;;;;;;;2.47;2.28;;;;;;;25.57;44.83;95102.03;5112739;28;20293;-73
2023/08/11 08:46:24;;;;;;;2.95;2.10;;;;;;;25.09;46.37;95093.81;5107480;28;20296;-74
2023/08/11 08:48:57;;;;;;;4.38;2.35;;;;;;;26.03;44.51;95090.44;5092435;28;20198;-76
2023/08/11 08:51:26;;;;;;;2.70;2.30;;;;;;;25.94;44.59;95087.41;5101011;28;20194;-76
2023/08/11 08:53:53;;;;;;;2.85;2.55;;;;;;;26.38;43.46;95092.00;5097947;28;20592;-76
2023/08/11 08:56:21;;;;;;;3.60;2.10;;;;;;;26.49;43.04;95084.31;5111160;28;20224;-76
2023/08/11 08:58:47;;;;;;;4.43;2.45;;;;;;;26.46;42.82;95089.91;5112323;28;20198;-76
2023/08/11 09:01:16;;;;;;;3.75;2.20;;;;;;;26.92;41.99;95082.88;5112082;28;20209;-78
2023/08/11 09:03:45;;;;;;;4.47;2.40;;;;;;;26.85;42.10;95084.56;5111404;28;20240;-75
2023/08/11 09:06:13;;;;;;;3.97;2.80;;;;;;;26.66;45.04;95088.00;5109795;28;20220;-74
2023/08/11 09:08:42;;;;;;;3.00;2.20;;;;;;;26.35;43.47;95090.06;5086941;28;20198;-75
2023/08/11 09:11:09;;;;;;;5.65;2.22;;;;;;;26.70;44.11;95088.75;5092849;28;20207;-75
2023/08/11 09:13:38;;;;;;;4.10;2.20;;;;;;;24.91;45.54;95098.66;5070488;28;20229;-74
2023/08/11 09:16:05;;;;;;;2.92;2.13;;;;;;;24.03;46.71;95093.28;5098840;28;20560;-77
2023/08/11 09:18:33;;;;;;;2.78;2.30;;;;;;;24.69;45.56;95086.97;5079951;28;20237;-77
2023/08/11 09:21:02;;;;;;;2.30;2.10;;;;;;;25.60;45.04;95094.88;5099915;28;20646;-76
2023/08/11 09:23:29;;;;;;;4.70;2.25;;;;;;;25.90;44.13;95083.09;5100514;28;20202;-75
2023/08/11 09:25:59;;;;;;;3.90;2.33;;;;;;;25.52;43.72;95079.53;5098669;28;20202;-75
2023/08/11 09:28:26;;;;;;;4.55;2.35;;;;;;;24.66;46.15;95080.25;5096232;28;20198;-77
2023/08/11 09:30:54;;;;;;;4.10;2.28;;;;;;;24.50;48.12;95079.19;5108176;28;20251;-76
2023/08/11 09:33:23;;;;;;;3.65;2.42;;;;;;;24.38;47.37;95088.75;5111143;28;20237;-75
2023/08/11 09:35:50;;;;;;;7.28;2.65;;;;;;;24.13;48.10;95088.06;5111938;28;20332;-76
2023/08/11 09:38:17;;;;;;;3.33;2.45;;;;;;;24.49;46.92;95078.38;5101098;28;20301;-76
2023/08/11 09:40:45;;;;;;;3.55;2.10;;;;;;;25.05;45.16;95070.84;5098356;28;20214;-74
2023/08/11 09:43:19;;;;;;;3.80;2.28;;;;;;;26.52;43.80;95077.09;5090642;28;20574;-75
2023/08/11 09:45:46;;;;;;;2.60;2.20;;;;;;;27.35;42.21;95069.81;5096636;28;20285;-76
2023/08/11 09:48:13;;;;;;;3.00;2.30;;;;;;;28.09;39.88;95067.63;5085844;28;20210;-76
2023/08/11 09:50:42;;;;;;;2.60;2.15;;;;;;;28.15;39.89;95079.84;5097555;28;20626;-75
2023/08/11 09:53:11;;;;;;;4.47;2.60;;;;;;;26.76;42.24;95070.41;5089652;28;20285;-73
2023/08/11 09:55:42;;;;;;;4.03;2.40;;;;;;;25.79;43.67;95091.53;5090993;28;20290;-79
2023/08/11 09:58:12;;;;;;;3.13;2.60;;;;;;;25.72;45.40;95080.50;5094135;28;20209;-77
2023/08/11 10:00:41;;;;;;;6.35;3.00;;;;;;;26.12;44.86;95082.38;5099335;28;20198;-75
2023/08/11 10:03:13;;;;;;;4.35;2.55;;;;;;;26.47;43.44;95074.81;5096128;28;20206;-75
2023/08/11 10:05:43;;;;;;;3.40;2.35;;;;;;;25.88;44.73;95072.38;5091225;28;20896;-76
2023/08/11 10:08:12;;;;;;;3.42;2.38;;;;;;;25.54;45.14;95072.38;5091300;28;20194;-74
2023/08/11 10:10:41;;;;;;;3.30;2.03;;;;;;;25.10;45.38;95073.19;5087954;28;20206;-74
2023/08/11 10:13:12;;;;;;;3.22;2.40;;;;;;;24.87;46.43;95064.66;5098173;28;20198;-77
2023/08/11 10:15:41;;;;;;;5.90;2.10;;;;;;;24.75;46.18;95069.50;5093238;28;20186;-75
2023/08/11 10:18:09;;;;;;;3.70;1.90;;;;;;;25.17;45.05;95067.56;5054344;28;20323;-74
2023/08/11 10:20:37;;;;;;;4.78;2.28;;;;;;;25.99;44.97;95056.38;5067777;28;20256;-76
2023/08/11 10:23:05;;;;;;;5.68;2.35;;;;;;;25.96;46.02;95057.22;5070096;28;20455;-76
2023/08/11 10:25:33;;;;;;;3.17;2.25;;;;;;;25.88;43.17;95061.28;5067393;28;20230;-75
2023/08/11 10:28:01;;;;;;;2.47;1.98;;;;;;;26.05;43.33;95054.72;5070463;28;20244;-74
2023/08/11 10:30:29;;;;;;;2.30;2.05;;;;;;;26.42;42.93;95050.28;5069755;28;20195;-75
2023/08/11 10:33:09;;;;;;;3.25;2.15;;;;;;;26.42;40.52;95044.72;5066978;28;20303;-73
2023/08/11 10:35:48;;;;;;;3.20;2.10;;;;;;;26.46;41.20;95028.78;5066572;28;20199;-76
2023/08/11 10:38:23;;;;;;;2.92;1.95;;;;;;;27.37;40.33;95036.78;5065926;28;20702;-76
2023/08/11 10:40:50;;;;;;;2.78;2.20;;;;;;;27.76;37.95;95029.69;5062650;28;20236;-76
2023/08/11 10:43:19;;;;;;;2.38;2.17;;;;;;;26.42;41.47;95028.81;5064040;28;20679;-74
2023/08/11 10:45:46;;;;;;;3.78;2.70;;;;;;;25.70;42.77;95044.03;5078217;28;21905;-75
2023/08/11 10:48:22;;;;;;;3.08;2.42;;;;;;;26.20;42.32;95027.53;5067208;28;20256;-75
2023/08/11 10:50:49;;;;;;;3.95;2.53;;;;;;;26.14;43.66;95023.66;5068577;28;20198;-76
2023/08/11 10:53:21;;;;;;;2.55;2.25;;;;;;;25.93;42.99;95024.75;5067511;28;20203;-76
2023/08/11 10:56:00;;;;;;;5.68;3.00;;;;;;;25.79;44.59;95033.25;5052277;28;20194;-75
2023/08/11 10:58:30;;;;;;;3.75;2.47;;;;;;;24.88;46.51;95038.50;5074135;28;20211;-76
2023/08/11 11:00:58;;;;;;;3.60;2.67;;;;;;;24.46;46.76;95043.22;5074022;28;20263;-77
2023/08/11 11:03:27;;;;;;;3.33;2.78;;;;;;;24.13;47.60;95039.03;5073430;28;20306;-75
2023/08/11 11:05:54;;;;;;;3.58;2.72;;;;;;;24.14;48.00;95042.59;5084192;28;20206;-76
2023/08/11 11:08:21;;;;;;;5.10;2.58;;;;;;;23.68;51.20;95052.69;5069951;28;20206;-75
2023/08/11 11:10:48;;;;;;;6.28;2.80;;;;;;;23.33;52.40;95047.25;5061895;28;20234;-76
2023/08/11 11:13:15;;;;;;;4.53;2.88;;;;;;;23.85;52.22;95045.50;5068248;28;20203;-75
2023/08/11 11:15:42;;;;;;;4.10;3.10;;;;;;;24.60;51.33;95045.84;5065864;28;20273;-75
2023/08/11 11:18:09;;;;;;;3.28;2.53;;;;;;;24.64;50.64;95046.63;5081920;28;20257;-75
2023/08/11 11:20:38;;;;;;;3.45;2.70;;;;;;;25.18;48.81;95038.66;5069531;28;20214;-75
2023/08/11 11:23:06;;;;;;;3.92;2.80;;;;;;;25.49;48.32;95029.19;5072782;28;20578;-76
2023/08/11 11:25:33;;;;;;;4.22;2.67;;;;;;;25.64;48.23;95040.97;5069672;28;20289;-75
2023/08/11 11:28:00;;;;;;;3.40;2.53;;;;;;;25.27;47.34;95033.41;5066760;28;20207;-79
2023/08/11 11:30:30;;;;;;;6.97;2.75;;;;;;;26.36;46.78;95033.31;5073113;28;20302;-79
2023/08/11 11:32:58;;;;;;;2.38;2.13;;;;;;;26.27;46.92;95018.31;5076126;28;20205;-79
2023/08/11 11:35:25;;;;;;;5.38;2.95;;;;;;;26.19;46.74;95037.09;5078721;28;20254;-79
2023/08/11 11:37:55;;;;;;;5.13;2.83;;;;;;;26.82;45.22;95018.66;5071702;28;20191;-81
2023/08/11 11:40:22;;;;;;;4.20;2.58;;;;;;;26.53;45.35;95023.09;5073921;28;20287;-79